Time;durP1;ratioP1;P1;durP2;ratioP2;P2;SDS_P1;SDS_P2;PMS_P1;PMS_P2;Temp;Humidity;BMP_temperature;BMP_pressure;BME280_temperature;BME280_humidity;BME280_pressure;Samples;Min_cycle;Max_cycle;Signal;HPM_P1;HPM_P2
2021/10/05 00:00:12;;;;;;;5.80;2.50;;;13.40;99.90;;;;;;4159021;28;20627;-75
2021/10/05 00:02:13;;;;;;;4.28;2.35;;;13.40;99.90;;;;;;4159338;28;20041;-75
2021/10/05 00:04:14;;;;;;;3.50;1.98;;;13.30;99.90;;;;;;4161661;28;20036;-75
2021/10/05 00:06:15;;;;;;;4.55;2.13;;;13.30;99.90;;;;;;4161035;28;20084;-75
2021/10/05 00:08:15;;;;;;;3.38;2.13;;;13.40;99.90;;;;;;4157934;28;20029;-75
2021/10/05 00:10:17;;;;;;;4.03;2.08;;;13.30;99.90;;;;;;4161255;28;20044;-75
2021/10/05 00:12:17;;;;;;;6.47;2.40;;;13.40;99.90;;;;;;4159422;28;20038;-75
2021/10/05 00:14:19;;;;;;;5.65;2.17;;;13.40;99.90;;;;;;4161336;28;20050;-75
2021/10/05 00:16:19;;;;;;;4.50;2.60;;;13.40;99.90;;;;;;4159272;28;20580;-76
2021/10/05 00:18:20;;;;;;;4.78;2.40;;;13.30;99.90;;;;;;4160719;28;20053;-75
2021/10/05 00:20:21;;;;;;;6.72;2.67;;;13.30;99.90;;;;;;4159500;28;20057;-75
2021/10/05 00:22:21;;;;;;;6.30;1.95;;;13.20;99.90;;;;;;4157361;28;20164;-75
2021/10/05 00:24:22;;;;;;;4.30;2.13;;;13.30;99.90;;;;;;4158899;28;20101;-75
2021/10/05 00:26:22;;;;;;;5.40;2.20;;;13.30;99.90;;;;;;4161547;28;20049;-75
2021/10/05 00:28:23;;;;;;;6.10;2.40;;;13.20;99.90;;;;;;4159745;28;20689;-75
2021/10/05 00:30:24;;;;;;;6.28;2.33;;;13.20;99.90;;;;;;4158954;28;20033;-75
2021/10/05 00:32:25;;;;;;;5.45;2.30;;;13.20;99.90;;;;;;4160567;28;20050;-75
2021/10/05 00:34:26;;;;;;;4.68;2.20;;;13.10;99.90;;;;;;4160531;28;20045;-75
2021/10/05 00:36:26;;;;;;;4.15;2.30;;;13.10;99.90;;;;;;4158723;28;20140;-76
2021/10/05 00:38:27;;;;;;;5.15;2.35;;;13.00;99.90;;;;;;4178520;28;20044;-75
2021/10/05 00:40:28;;;;;;;3.88;2.30;;;13.00;99.90;;;;;;4178504;28;20045;-75
2021/10/05 00:42:29;;;;;;;4.35;2.38;;;13.00;99.90;;;;;;4180456;28;20049;-75
2021/10/05 00:44:30;;;;;;;5.85;2.47;;;13.00;99.90;;;;;;4181114;28;20028;-75
2021/10/05 00:46:33;;;;;;;4.93;2.53;;;12.90;99.90;;;;;;4178154;28;20037;-75
2021/10/05 00:48:34;;;;;;;4.85;2.13;;;12.90;99.90;;;;;;4176079;28;20116;-75
2021/10/05 00:50:34;;;;;;;4.63;2.58;;;12.90;99.90;;;;;;4179885;28;20560;-75
2021/10/05 00:52:36;;;;;;;4.25;2.45;;;12.80;99.90;;;;;;4174437;28;20033;-75
2021/10/05 00:54:39;;;;;;;4.18;2.40;;;12.90;99.90;;;;;;4181260;28;20516;-75
2021/10/05 00:56:39;;;;;;;4.68;2.28;;;12.80;99.90;;;;;;4176309;28;20029;-76
2021/10/05 00:58:40;;;;;;;4.47;2.42;;;12.80;99.90;;;;;;4181812;28;20063;-75
2021/10/05 01:00:41;;;;;;;5.10;2.42;;;12.90;99.90;;;;;;4177329;28;20056;-75
2021/10/05 01:02:43;;;;;;;4.55;2.30;;;12.80;99.90;;;;;;4175966;28;20041;-74
2021/10/05 01:04:44;;;;;;;4.97;2.30;;;12.70;99.90;;;;;;4179751;28;20025;-75
2021/10/05 01:07:02;;;;;;;6.50;2.70;;;12.80;99.90;;;;;;4175702;28;20394;-75
2021/10/05 01:09:03;;;;;;;8.50;2.60;;;12.80;99.90;;;;;;4180226;28;20425;-75
2021/10/05 01:11:04;;;;;;;4.65;2.83;;;12.80;99.90;;;;;;4181851;28;20025;-75
2021/10/05 01:13:04;;;;;;;4.80;2.40;;;12.80;99.90;;;;;;4184918;28;20108;-76
2021/10/05 01:15:05;;;;;;;4.90;2.47;;;12.80;99.90;;;;;;4177130;28;20129;-75
2021/10/05 01:17:07;;;;;;;3.42;2.10;;;12.80;99.90;;;;;;4178260;28;20071;-75
2021/10/05 01:19:08;;;;;;;5.10;2.50;;;12.80;99.90;;;;;;4180407;28;20033;-75
2021/10/05 01:21:09;;;;;;;6.60;2.50;;;12.80;99.90;;;;;;4178945;28;20060;-75
2021/10/05 01:23:13;;;;;;;6.55;2.35;;;12.90;99.90;;;;;;4183729;28;20044;-75
2021/10/05 01:25:15;;;;;;;4.75;2.40;;;12.80;99.90;;;;;;4174333;28;20029;-75
2021/10/05 01:27:16;;;;;;;5.53;2.80;;;12.90;99.90;;;;;;4178877;28;20095;-75
2021/10/05 01:29:18;;;;;;;3.75;2.42;;;12.90;99.90;;;;;;4179527;28;20041;-75
2021/10/05 01:31:19;;;;;;;5.20;2.90;;;12.90;99.90;;;;;;4176926;28;20056;-75
2021/10/05 01:33:23;;;;;;;5.20;2.90;;;12.90;99.90;;;;;;4162804;28;20041;-75
2021/10/05 01:35:26;;;;;;;5.55;2.45;;;12.90;99.90;;;;;;4149335;28;20042;-76
2021/10/05 01:37:27;;;;;;;9.15;3.22;;;12.90;99.90;;;;;;4161496;28;20037;-75
2021/10/05 01:39:40;;;;;;;7.40;3.22;;;12.90;99.90;;;;;;4174994;28;20132;-75
2021/10/05 01:41:41;;;;;;;6.05;3.15;;;12.90;99.90;;;;;;4173145;28;20087;-76
2021/10/05 01:43:41;;;;;;;5.93;3.03;;;12.80;99.90;;;;;;4178750;28;20074;-75
2021/10/05 01:45:43;;;;;;;4.65;2.90;;;12.80;99.90;;;;;;4178064;28;20022;-75
2021/10/05 01:47:45;;;;;;;7.97;2.80;;;12.80;99.90;;;;;;4163301;28;20041;-75
2021/10/05 01:49:46;;;;;;;4.20;2.58;;;12.80;99.90;;;;;;4178333;28;20017;-75
2021/10/05 01:51:47;;;;;;;4.95;2.50;;;12.80;99.90;;;;;;4180183;28;20025;-75
2021/10/05 01:53:47;;;;;;;5.78;2.50;;;12.70;99.90;;;;;;4179356;28;20028;-75
2021/10/05 01:55:48;;;;;;;4.85;2.38;;;12.70;99.90;;;;;;4180608;28;20037;-75
2021/10/05 01:57:49;;;;;;;4.03;2.20;;;12.70;99.90;;;;;;4178326;28;20059;-75
2021/10/05 01:59:49;;;;;;;4.53;2.50;;;12.70;99.90;;;;;;4177916;28;20040;-75
2021/10/05 02:01:50;;;;;;;3.85;2.40;;;12.70;99.90;;;;;;4180711;28;20563;-75
2021/10/05 02:03:51;;;;;;;3.13;1.92;;;12.70;99.90;;;;;;4175772;28;20429;-75
2021/10/05 02:05:52;;;;;;;5.00;3.00;;;12.60;99.90;;;;;;4177495;28;20078;-75
2021/10/05 02:07:52;;;;;;;5.20;2.53;;;12.60;99.90;;;;;;4173678;28;20025;-75
2021/10/05 02:09:53;;;;;;;4.85;2.55;;;12.60;99.90;;;;;;4180108;28;20047;-75
2021/10/05 02:11:54;;;;;;;4.35;2.28;;;12.50;99.90;;;;;;4176648;28;20033;-75
2021/10/05 02:13:54;;;;;;;4.40;2.10;;;12.50;99.90;;;;;;4161526;28;20025;-75
2021/10/05 02:15:55;;;;;;;2.75;1.92;;;12.50;99.90;;;;;;4181423;28;20165;-75
2021/10/05 02:17:55;;;;;;;4.50;2.50;;;12.50;99.90;;;;;;4161231;28;20041;-75
2021/10/05 02:19:56;;;;;;;3.30;2.30;;;12.50;99.90;;;;;;4179900;28;20083;-75
2021/10/05 02:21:56;;;;;;;2.70;2.13;;;12.50;99.90;;;;;;4183147;28;20025;-75
2021/10/05 02:26:16;;;;;;;4.70;2.10;;;12.50;99.90;;;;;;4180275;28;20392;-75
2021/10/05 02:28:17;;;;;;;4.50;2.45;;;12.50;99.90;;;;;;4175374;28;20064;-75
2021/10/05 02:30:18;;;;;;;3.10;2.08;;;12.50;99.90;;;;;;4180750;28;20134;-75
2021/10/05 02:32:19;;;;;;;6.68;2.55;;;12.60;99.90;;;;;;4184915;28;20032;-76
2021/10/05 02:34:22;;;;;;;4.03;2.10;;;12.60;99.90;;;;;;4163915;28;20021;-75
2021/10/05 02:36:22;;;;;;;4.25;2.10;;;12.60;99.90;;;;;;4178458;28;20029;-75
2021/10/05 02:38:23;;;;;;;2.47;2.08;;;12.60;99.90;;;;;;4178065;28;20622;-75
2021/10/05 02:40:24;;;;;;;4.13;1.92;;;12.60;99.90;;;;;;4175140;28;20050;-75
2021/10/05 02:42:25;;;;;;;4.28;2.20;;;12.60;99.90;;;;;;4176980;28;20040;-75
2021/10/05 02:44:26;;;;;;;3.45;2.30;;;12.70;99.90;;;;;;4181279;28;20111;-75
2021/10/05 02:46:26;;;;;;;3.30;2.03;;;12.70;99.90;;;;;;4179793;28;20056;-75
2021/10/05 02:48:27;;;;;;;3.17;2.17;;;12.70;99.90;;;;;;4178476;28;20489;-75
2021/10/05 02:50:27;;;;;;;5.97;2.30;;;12.60;99.90;;;;;;4190467;28;20036;-75
2021/10/05 02:52:28;;;;;;;5.35;2.35;;;12.70;99.90;;;;;;4180845;28;20044;-75
2021/10/05 02:54:28;;;;;;;3.05;2.20;;;12.70;99.90;;;;;;4179442;28;20036;-75
2021/10/05 02:56:29;;;;;;;6.63;2.70;;;12.70;99.90;;;;;;4160598;28;20034;-75
2021/10/05 02:58:30;;;;;;;4.18;2.20;;;12.60;99.90;;;;;;4177988;28;20033;-75
2021/10/05 03:00:30;;;;;;;2.92;2.20;;;12.60;99.90;;;;;;4175246;28;20037;-75
2021/10/05 03:02:32;;;;;;;3.75;2.05;;;12.60;99.90;;;;;;4182315;28;22594;-75
2021/10/05 03:04:33;;;;;;;3.70;2.30;;;12.60;99.90;;;;;;4182269;28;20060;-75
2021/10/05 03:06:34;;;;;;;5.55;2.40;;;12.60;99.90;;;;;;4180821;28;20496;-75
2021/10/05 03:08:36;;;;;;;5.80;2.22;;;12.50;99.90;;;;;;4185235;28;20484;-75
2021/10/05 03:10:37;;;;;;;2.73;2.10;;;12.50;99.90;;;;;;4174667;28;20111;-75
2021/10/05 03:12:37;;;;;;;4.13;2.30;;;12.50;99.90;;;;;;4181203;28;20090;-75
2021/10/05 03:14:38;;;;;;;4.75;2.40;;;12.50;99.90;;;;;;4178992;28;20033;-75
2021/10/05 03:16:39;;;;;;;3.88;2.22;;;12.50;99.90;;;;;;4177513;28;20039;-75
2021/10/05 03:18:45;;;;;;;4.78;2.45;;;12.50;99.90;;;;;;4179041;28;20516;-75
2021/10/05 03:20:45;;;;;;;3.35;2.17;;;12.60;99.90;;;;;;4182398;28;20105;-74
2021/10/05 03:22:46;;;;;;;7.32;2.67;;;12.60;99.90;;;;;;4182317;28;20122;-76
2021/10/05 03:24:47;;;;;;;3.40;1.85;;;12.60;99.90;;;;;;4158220;28;20136;-75
2021/10/05 03:26:47;;;;;;;3.17;2.17;;;12.70;99.90;;;;;;4175825;28;20116;-75
2021/10/05 03:28:49;;;;;;;3.25;2.38;;;12.70;99.90;;;;;;4178343;28;20112;-75
2021/10/05 03:30:50;;;;;;;6.30;2.22;;;12.70;99.90;;;;;;4183518;28;22336;-75
2021/10/05 03:32:50;;;;;;;4.07;2.63;;;12.70;99.90;;;;;;4178195;28;20124;-75
2021/10/05 03:34:51;;;;;;;5.93;2.67;;;12.70;99.90;;;;;;4182395;28;20040;-75
2021/10/05 03:36:51;;;;;;;3.45;2.53;;;12.70;99.90;;;;;;4175160;28;20036;-75
2021/10/05 03:38:52;;;;;;;8.63;2.65;;;12.60;99.90;;;;;;4175998;28;20033;-75
2021/10/05 03:40:54;;;;;;;4.18;2.67;;;12.60;99.90;;;;;;4184469;28;20152;-75
2021/10/05 03:42:54;;;;;;;4.90;2.65;;;12.60;99.90;;;;;;4182795;28;20041;-75
2021/10/05 03:44:55;;;;;;;5.90;2.72;;;12.50;99.90;;;;;;4179082;28;20029;-75
2021/10/05 03:46:56;;;;;;;4.60;2.80;;;12.60;99.90;;;;;;4182571;28;20449;-75
2021/10/05 03:49:03;;;;;;;3.13;1.90;;;12.50;99.90;;;;;;4176947;28;20116;-75
2021/10/05 03:51:03;;;;;;;3.30;2.25;;;12.50;99.90;;;;;;4177061;28;20524;-74
2021/10/05 03:53:05;;;;;;;4.20;2.17;;;12.50;99.90;;;;;;4178687;28;20033;-75
2021/10/05 03:55:08;;;;;;;3.55;2.10;;;12.50;99.90;;;;;;4181536;28;20044;-75
2021/10/05 03:57:08;;;;;;;;;;;12.50;99.90;;;;;;4176195;28;20048;-75
2021/10/05 03:59:15;;;;;;;3.65;2.30;;;12.50;99.90;;;;;;4161924;28;19920;-75
2021/10/05 04:01:15;;;;;;;2.38;1.90;;;12.40;99.90;;;;;;4177208;28;20033;-76
2021/10/05 04:03:23;;;;;;;3.92;2.20;;;12.40;99.90;;;;;;4175375;28;20052;-75
2021/10/05 04:05:24;;;;;;;4.78;2.08;;;12.50;99.90;;;;;;4175314;28;20037;-75
2021/10/05 04:07:25;;;;;;;4.03;2.15;;;12.40;99.90;;;;;;4176029;28;20040;-75
2021/10/05 04:09:25;;;;;;;2.88;2.20;;;12.40;99.90;;;;;;4178750;28;20828;-75
2021/10/05 04:11:26;;;;;;;4.72;1.90;;;12.40;99.90;;;;;;4176909;28;20500;-75
2021/10/05 04:13:26;;;;;;;3.47;1.83;;;12.40;99.90;;;;;;4178285;28;20040;-75
2021/10/05 04:15:27;;;;;;;3.65;2.25;;;12.40;99.90;;;;;;4182527;28;20083;-75
2021/10/05 04:17:29;;;;;;;3.45;2.00;;;12.40;99.90;;;;;;4176983;28;20228;-75
2021/10/05 04:19:30;;;;;;;3.78;2.30;;;12.40;99.90;;;;;;4174580;28;20037;-75
2021/10/05 04:21:31;;;;;;;2.92;1.60;;;12.40;99.90;;;;;;4176285;28;20033;-75
2021/10/05 04:23:31;;;;;;;3.47;2.05;;;12.40;99.90;;;;;;4176087;28;20475;-75
2021/10/05 04:25:32;;;;;;;3.20;1.80;;;12.40;99.90;;;;;;4178419;28;20038;-76
2021/10/05 04:27:37;;;;;;;3.25;2.10;;;12.40;99.90;;;;;;4177190;28;20033;-75
2021/10/05 04:29:39;;;;;;;4.97;2.05;;;12.40;99.90;;;;;;4180636;28;20036;-75
2021/10/05 04:31:41;;;;;;;5.87;2.27;;;12.30;99.90;;;;;;4176365;28;20029;-75
2021/10/05 04:33:42;;;;;;;4.32;1.90;;;12.30;99.90;;;;;;4179748;28;20262;-75
2021/10/05 04:35:42;;;;;;;2.50;1.95;;;12.30;99.90;;;;;;4174991;28;20064;-74
2021/10/05 04:37:43;;;;;;;2.85;1.83;;;12.30;99.90;;;;;;4179814;28;20067;-74
2021/10/05 04:39:43;;;;;;;3.20;1.45;;;12.20;99.90;;;;;;4185035;28;20530;-75
2021/10/05 04:41:44;;;;;;;3.83;1.65;;;12.20;99.90;;;;;;4180511;28;20028;-74
2021/10/05 04:43:47;;;;;;;4.07;1.52;;;12.20;99.90;;;;;;4185492;28;20036;-74
2021/10/05 04:45:47;;;;;;;4.40;1.60;;;12.20;99.90;;;;;;4183259;28;20040;-75
2021/10/05 04:47:48;;;;;;;2.53;1.60;;;12.20;99.90;;;;;;4176832;28;20060;-74
2021/10/05 04:49:48;;;;;;;5.05;1.88;;;12.20;99.90;;;;;;4176990;28;20523;-74
2021/10/05 04:51:49;;;;;;;3.72;1.65;;;12.20;99.90;;;;;;4178612;28;20025;-75
2021/10/05 04:53:49;;;;;;;1.85;1.40;;;12.20;99.90;;;;;;4172167;28;20107;-74
2021/10/05 04:55:50;;;;;;;2.35;1.45;;;12.10;99.90;;;;;;4172282;28;20111;-75
2021/10/05 04:57:51;;;;;;;3.05;1.67;;;12.10;99.90;;;;;;4171545;28;20215;-74
2021/10/05 04:59:52;;;;;;;2.58;1.58;;;12.10;99.90;;;;;;4172075;28;20577;-74
2021/10/05 05:01:52;;;;;;;2.60;1.63;;;12.10;99.90;;;;;;4173175;28;20052;-74
2021/10/05 05:03:53;;;;;;;4.32;1.92;;;12.10;99.90;;;;;;4173491;28;20693;-73
2021/10/05 05:05:53;;;;;;;1.98;1.67;;;12.10;99.90;;;;;;4171564;28;20090;-74
2021/10/05 05:07:58;;;;;;;3.45;1.80;;;12.10;99.90;;;;;;4171959;28;20044;-74
2021/10/05 05:10:04;;;;;;;2.38;1.48;;;12.10;99.90;;;;;;4172457;28;20660;-74
2021/10/05 05:12:05;;;;;;;3.63;1.52;;;12.10;99.90;;;;;;4150299;28;20060;-74
2021/10/05 05:14:10;;;;;;;2.92;1.65;;;12.10;99.90;;;;;;4169042;28;20521;-74
2021/10/05 05:16:12;;;;;;;2.40;1.80;;;12.10;99.90;;;;;;4169391;28;20030;-73
2021/10/05 05:18:12;;;;;;;7.67;1.87;;;12.10;99.90;;;;;;4168590;28;20037;-73
2021/10/05 05:20:13;;;;;;;6.85;1.98;;;12.10;99.90;;;;;;4169292;28;20029;-74
2021/10/05 05:22:14;;;;;;;2.92;1.88;;;12.10;99.90;;;;;;4169073;28;20051;-74
2021/10/05 05:24:16;;;;;;;3.75;1.98;;;12.10;99.90;;;;;;4160047;28;20060;-74
2021/10/05 05:26:16;;;;;;;2.58;1.67;;;12.10;99.90;;;;;;4169365;28;20045;-74
2021/10/05 05:28:17;;;;;;;1.67;1.58;;;12.20;99.90;;;;;;4169082;28;20037;-74
2021/10/05 05:30:18;;;;;;;4.70;2.10;;;12.10;99.90;;;;;;4169405;28;20060;-74
2021/10/05 05:32:18;;;;;;;2.55;1.88;;;12.20;99.90;;;;;;4170924;28;20064;-74
2021/10/05 05:34:20;;;;;;;3.70;2.08;;;12.20;99.90;;;;;;4168184;28;20920;-74
2021/10/05 05:36:20;;;;;;;3.65;1.90;;;12.20;99.90;;;;;;4167939;28;20125;-74
2021/10/05 05:38:23;;;;;;;2.63;1.70;;;12.10;99.90;;;;;;4168252;28;20064;-74
2021/10/05 05:40:23;;;;;;;3.45;1.98;;;12.10;99.90;;;;;;4168469;28;20109;-74
2021/10/05 05:42:24;;;;;;;2.30;1.85;;;12.10;99.90;;;;;;4169414;28;20056;-74
2021/10/05 05:44:25;;;;;;;3.53;2.00;;;12.10;99.90;;;;;;4166539;28;20648;-74
2021/10/05 05:46:26;;;;;;;2.92;1.58;;;12.10;99.90;;;;;;4167217;28;20556;-74
2021/10/05 05:48:26;;;;;;;2.22;1.92;;;12.20;99.90;;;;;;4168608;28;20048;-74
2021/10/05 05:50:27;;;;;;;3.80;1.70;;;12.10;99.90;;;;;;4168416;28;20039;-74
2021/10/05 05:52:28;;;;;;;2.42;1.70;;;12.10;99.90;;;;;;4167966;28;20453;-73
2021/10/05 05:54:28;;;;;;;5.97;2.13;;;12.20;99.90;;;;;;4167413;28;20045;-74
2021/10/05 05:56:29;;;;;;;5.43;1.90;;;12.20;99.90;;;;;;4171096;28;20033;-73
2021/10/05 05:58:30;;;;;;;2.42;2.03;;;12.20;99.90;;;;;;4152836;28;20048;-74
2021/10/05 06:00:31;;;;;;;2.80;1.95;;;12.20;99.90;;;;;;4169546;28;20562;-73
2021/10/05 06:02:31;;;;;;;2.30;1.77;;;12.20;99.90;;;;;;4169308;28;20040;-74
2021/10/05 06:04:32;;;;;;;3.50;2.30;;;12.20;99.90;;;;;;4169619;28;20033;-74
2021/10/05 06:06:33;;;;;;;2.75;1.90;;;12.20;99.90;;;;;;4170046;28;20036;-74
2021/10/05 06:08:34;;;;;;;3.17;2.05;;;12.20;99.90;;;;;;4167632;28;20120;-74
2021/10/05 06:10:35;;;;;;;3.28;2.33;;;12.20;99.90;;;;;;4167645;28;20489;-74
2021/10/05 06:12:39;;;;;;;3.47;2.20;;;12.20;99.90;;;;;;4169666;28;20049;-74
2021/10/05 06:14:40;;;;;;;2.28;1.90;;;12.30;99.90;;;;;;4170388;28;20029;-74
2021/10/05 06:16:41;;;;;;;3.28;2.22;;;12.30;99.90;;;;;;4168354;28;20139;-74
2021/10/05 06:18:42;;;;;;;2.75;2.15;;;12.20;99.90;;;;;;4170784;28;20052;-74
2021/10/05 06:20:43;;;;;;;4.28;2.33;;;12.30;99.90;;;;;;4170156;28;21606;-75
2021/10/05 06:22:46;;;;;;;4.20;2.92;;;12.30;99.90;;;;;;4169865;28;20064;-75
2021/10/05 06:24:47;;;;;;;4.88;2.50;;;12.30;99.90;;;;;;4158878;28;20049;-75
2021/10/05 06:26:48;;;;;;;3.10;2.40;;;12.30;99.90;;;;;;4136223;28;20233;-74
2021/10/05 06:28:48;;;;;;;4.60;2.72;;;12.30;99.90;;;;;;4150038;28;20038;-75
2021/10/05 06:30:49;;;;;;;4.43;2.60;;;12.30;99.90;;;;;;4148041;28;20110;-74
2021/10/05 06:32:55;;;;;;;3.67;2.47;;;12.30;99.90;;;;;;4152934;28;20494;-74
2021/10/05 06:34:55;;;;;;;2.67;2.15;;;12.30;99.90;;;;;;4151413;28;20033;-74
2021/10/05 06:36:56;;;;;;;4.32;2.83;;;12.30;99.90;;;;;;4149143;28;20127;-74
2021/10/05 06:38:58;;;;;;;3.28;2.42;;;12.30;99.90;;;;;;4149883;28;20061;-74
2021/10/05 06:40:59;;;;;;;3.10;2.60;;;12.30;99.90;;;;;;4148672;28;20120;-74
2021/10/05 06:43:00;;;;;;;3.47;2.30;;;12.30;99.90;;;;;;4149302;28;20065;-74
2021/10/05 06:45:05;;;;;;;4.18;2.65;;;12.30;99.90;;;;;;4150144;28;20030;-74
2021/10/05 06:47:06;;;;;;;4.32;2.53;;;12.40;99.90;;;;;;4145559;28;24554;-73
2021/10/05 06:49:06;;;;;;;3.58;2.47;;;12.40;99.90;;;;;;4150590;28;20040;-74
2021/10/05 06:51:07;;;;;;;3.60;2.53;;;12.40;99.90;;;;;;4148486;28;20030;-74
2021/10/05 06:53:08;;;;;;;3.50;2.47;;;12.40;99.90;;;;;;4151862;28;20049;-74
2021/10/05 06:55:09;;;;;;;4.68;2.13;;;12.40;99.90;;;;;;4150430;28;20026;-74
2021/10/05 06:57:10;;;;;;;3.95;2.50;;;12.40;99.90;;;;;;4148415;28;20052;-74
2021/10/05 06:59:10;;;;;;;4.70;2.60;;;12.50;99.90;;;;;;4151583;28;20188;-74
2021/10/05 07:01:11;;;;;;;3.58;2.25;;;12.50;99.90;;;;;;4149667;28;20037;-74
2021/10/05 07:03:13;;;;;;;2.42;2.20;;;12.50;99.90;;;;;;4148201;28;20048;-74
2021/10/05 07:05:16;;;;;;;7.15;2.80;;;12.50;99.90;;;;;;4143848;28;20067;-74
2021/10/05 07:07:16;;;;;;;;;;;12.50;99.90;;;;;;4166450;28;20487;-74
2021/10/05 07:09:17;;;;;;;3.72;2.70;;;12.50;99.90;;;;;;4169064;28;19925;-74
2021/10/05 07:11:18;;;;;;;3.40;2.55;;;12.50;99.90;;;;;;4147769;28;20047;-74
2021/10/05 07:13:18;;;;;;;4.28;2.72;;;12.50;99.90;;;;;;4150939;28;20117;-73
2021/10/05 07:15:19;;;;;;;3.58;2.40;;;12.50;99.90;;;;;;4150672;28;20045;-74
2021/10/05 07:17:20;;;;;;;3.50;2.40;;;12.50;99.90;;;;;;4147528;28;20053;-76
2021/10/05 07:19:21;;;;;;;5.60;3.03;;;12.50;99.90;;;;;;4146047;28;21247;-73
2021/10/05 07:21:23;;;;;;;3.58;2.40;;;12.60;99.90;;;;;;4147428;28;20797;-73
2021/10/05 07:23:23;;;;;;;4.07;2.73;;;12.60;99.90;;;;;;4136269;28;20096;-74
2021/10/05 07:25:25;;;;;;;2.80;2.35;;;12.60;99.90;;;;;;4149098;28;20264;-74
2021/10/05 07:27:26;;;;;;;4.60;3.05;;;12.60;99.90;;;;;;4149300;28;20477;-74
2021/10/05 07:29:26;;;;;;;5.30;3.47;;;12.70;99.90;;;;;;4150265;28;20037;-74
2021/10/05 07:31:29;;;;;;;4.55;3.15;;;12.70;99.90;;;;;;4149253;28;20037;-74
2021/10/05 07:33:30;;;;;;;3.33;2.63;;;12.80;99.90;;;;;;4152128;28;20029;-74
2021/10/05 07:35:31;;;;;;;4.38;3.00;;;12.80;99.90;;;;;;4148791;28;20462;-75
2021/10/05 07:37:32;;;;;;;4.53;2.90;;;12.80;99.90;;;;;;4146719;28;20489;-75
2021/10/05 07:39:32;;;;;;;4.63;2.90;;;12.90;99.90;;;;;;4149055;28;20033;-74
2021/10/05 07:41:33;;;;;;;3.50;2.60;;;12.90;99.90;;;;;;4146625;28;20448;-75
2021/10/05 07:43:34;;;;;;;6.45;3.10;;;13.00;99.90;;;;;;4148322;28;20034;-75
2021/10/05 07:45:36;;;;;;;4.10;2.72;;;13.00;99.90;;;;;;4148564;28;20038;-75
2021/10/05 07:47:37;;;;;;;4.00;3.22;;;13.10;99.90;;;;;;4147813;28;20065;-75
2021/10/05 07:49:38;;;;;;;4.07;3.10;;;13.20;99.90;;;;;;4147193;28;20053;-75
2021/10/05 07:51:38;;;;;;;3.33;2.65;;;13.20;99.90;;;;;;4145951;28;20038;-75
2021/10/05 07:53:40;;;;;;;6.53;3.42;;;13.30;99.90;;;;;;4148475;28;20110;-75
2021/10/05 07:55:40;;;;;;;4.65;2.97;;;13.40;99.90;;;;;;4130759;28;20046;-75
2021/10/05 07:57:42;;;;;;;5.35;3.40;;;13.40;99.90;;;;;;4145695;28;20662;-75
2021/10/05 07:59:42;;;;;;;4.70;3.00;;;13.50;99.90;;;;;;4149310;28;20032;-75
2021/10/05 08:01:49;;;;;;;4.78;3.53;;;13.70;99.90;;;;;;4147143;28;20065;-75
2021/10/05 08:03:50;;;;;;;3.75;3.05;;;13.90;99.90;;;;;;4165333;28;20041;-75
2021/10/05 08:05:50;;;;;;;4.35;2.47;;;14.10;99.90;;;;;;4164184;28;20479;-75
2021/10/05 08:08:05;;;;;;;3.97;2.95;;;14.20;99.90;;;;;;4164657;28;20044;-76
2021/10/05 08:10:09;;;;;;;5.55;2.95;;;14.40;99.90;;;;;;4077013;28;20837;-75
2021/10/05 08:12:10;;;;;;;7.88;3.78;;;14.40;99.90;;;;;;4148280;28;21240;-75
2021/10/05 08:14:11;;;;;;;5.72;3.30;;;14.60;99.90;;;;;;4168476;28;20029;-75
2021/10/05 08:16:12;;;;;;;5.60;3.05;;;14.70;99.90;;;;;;4167259;28;20335;-75
2021/10/05 08:18:13;;;;;;;4.93;2.97;;;14.70;99.90;;;;;;4165365;28;20588;-75
2021/10/05 08:20:14;;;;;;;4.13;2.50;;;14.70;99.90;;;;;;4152522;28;20111;-75
2021/10/05 08:22:16;;;;;;;3.78;2.95;;;14.80;99.90;;;;;;4170840;28;20048;-75
2021/10/05 08:24:19;;;;;;;7.97;3.75;;;14.90;99.90;;;;;;4181111;28;20032;-75
2021/10/05 08:26:22;;;;;;;5.70;2.58;;;15.00;99.90;;;;;;4182536;28;20028;-75
2021/10/05 08:28:22;;;;;;;;;;;15.00;99.90;;;;;;4181874;28;20032;-75
2021/10/05 08:30:23;;;;;;;4.97;3.05;;;15.00;99.90;;;;;;4178694;28;20285;-75
2021/10/05 08:32:24;;;;;;;5.15;3.15;;;15.00;99.90;;;;;;4168587;28;20506;-75
2021/10/05 08:34:25;;;;;;;6.90;3.42;;;15.10;99.90;;;;;;4156103;28;20124;-75
2021/10/05 08:36:25;;;;;;;5.95;3.03;;;15.10;99.90;;;;;;4151652;28;20510;-75
2021/10/05 08:38:26;;;;;;;5.18;3.33;;;15.20;99.90;;;;;;4154072;28;20087;-75
2021/10/05 08:40:27;;;;;;;6.57;3.25;;;15.30;99.90;;;;;;4153151;28;20041;-75
2021/10/05 08:42:27;;;;;;;4.22;2.83;;;15.30;99.90;;;;;;4156696;28;20091;-75
2021/10/05 08:44:29;;;;;;;6.05;2.92;;;15.40;99.90;;;;;;4151897;28;20021;-75
2021/10/05 08:46:35;;;;;;;4.55;2.78;;;15.40;99.90;;;;;;4155453;28;20490;-75
2021/10/05 08:48:38;;;;;;;4.45;3.03;;;15.40;99.90;;;;;;4153573;28;20249;-75
2021/10/05 08:50:40;;;;;;;6.82;2.72;;;15.40;99.90;;;;;;4155712;28;20029;-75
2021/10/05 08:52:44;;;;;;;4.72;2.20;;;15.40;99.90;;;;;;4151618;28;20041;-75
2021/10/05 08:54:44;;;;;;;6.35;3.03;;;15.50;99.90;;;;;;4152530;28;20034;-72
2021/10/05 08:56:46;;;;;;;7.53;3.55;;;15.50;99.90;;;;;;4156571;28;20033;-75
2021/10/05 08:58:46;;;;;;;4.18;2.70;;;15.50;99.90;;;;;;4154549;28;20124;-75
2021/10/05 09:00:47;;;;;;;5.60;3.40;;;15.60;99.90;;;;;;4155754;28;20493;-76
2021/10/05 09:02:54;;;;;;;5.15;3.03;;;15.70;99.90;;;;;;4153493;28;20568;-75
2021/10/05 09:04:56;;;;;;;9.40;3.45;;;15.80;99.90;;;;;;4169540;28;20056;-75
2021/10/05 09:06:57;;;;;;;7.10;3.08;;;15.90;99.90;;;;;;4172512;28;20163;-75
2021/10/05 09:09:01;;;;;;;4.05;3.08;;;16.00;99.90;;;;;;4171008;28;20057;-75
2021/10/05 09:11:02;;;;;;;4.65;2.58;;;16.10;99.90;;;;;;4170031;28;20405;-75
2021/10/05 09:13:03;;;;;;;5.22;2.92;;;16.10;99.90;;;;;;4170809;28;20175;-75
2021/10/05 09:15:07;;;;;;;3.83;2.45;;;16.30;99.90;;;;;;4173604;28;20037;-75
2021/10/05 09:17:28;;;;;;;3.10;2.28;;;16.50;99.90;;;;;;4169308;28;20032;-74
2021/10/05 09:19:28;;;;;;;5.30;2.55;;;16.50;99.90;;;;;;4157844;28;20219;-74
2021/10/05 09:21:32;;;;;;;5.20;2.72;;;16.60;99.90;;;;;;4164649;28;20030;-74
2021/10/05 09:23:33;;;;;;;6.30;2.55;;;16.60;99.90;;;;;;4167998;28;20446;-74
2021/10/05 09:25:38;;;;;;;3.75;2.20;;;16.70;99.90;;;;;;4168145;28;20065;-74
2021/10/05 09:27:49;;;;;;;4.80;2.22;;;16.80;99.90;;;;;;4166483;28;20044;-74
2021/10/05 09:29:50;;;;;;;4.20;2.30;;;16.80;99.90;;;;;;4166009;28;20044;-74
2021/10/05 09:32:01;;;;;;;2.63;2.00;;;16.80;99.90;;;;;;4165194;28;20037;-74
2021/10/05 09:34:02;;;;;;;2.65;1.65;;;16.90;99.90;;;;;;4166081;28;20051;-75
2021/10/05 09:36:06;;;;;;;2.95;1.83;;;17.00;99.90;;;;;;4168076;28;20433;-74
2021/10/05 09:38:18;;;;;;;3.17;1.90;;;17.00;99.90;;;;;;4167057;28;20082;-74
2021/10/05 09:40:18;;;;;;;3.60;1.87;;;17.00;99.90;;;;;;4166432;28;20045;-74
2021/10/05 09:42:28;;;;;;;1.95;1.48;;;17.10;99.90;;;;;;4163548;28;20071;-74
2021/10/05 09:44:28;;;;;;;5.25;1.88;;;17.20;99.90;;;;;;4166562;28;20026;-75
2021/10/05 09:46:33;;;;;;;3.42;1.73;;;17.20;99.90;;;;;;4164116;28;20100;-74
2021/10/05 09:48:33;;;;;;;5.40;2.10;;;17.30;99.90;;;;;;4166993;28;20025;-74
2021/10/05 09:50:35;;;;;;;3.35;1.90;;;17.30;99.90;;;;;;4166518;28;20102;-74
2021/10/05 09:52:48;;;;;;;3.57;2.00;;;17.30;99.90;;;;;;4163897;28;20025;-74
2021/10/05 09:54:49;;;;;;;5.18;1.75;;;17.30;99.90;;;;;;4167011;28;20040;-75
2021/10/05 09:56:49;;;;;;;2.35;1.63;;;17.40;99.90;;;;;;4165380;28;20063;-74
2021/10/05 09:58:51;;;;;;;4.70;2.00;;;17.50;99.90;;;;;;4165585;28;20033;-74
2021/10/05 10:00:52;;;;;;;4.75;1.92;;;17.40;99.90;;;;;;4164876;28;20037;-74
2021/10/05 10:02:53;;;;;;;2.47;1.75;;;17.40;99.90;;;;;;4152491;28;20132;-75
2021/10/05 10:04:54;;;;;;;3.20;1.60;;;17.50;99.90;;;;;;4169568;28;20079;-74
2021/10/05 10:06:55;;;;;;;2.65;1.60;;;17.50;99.90;;;;;;4164214;28;20088;-75
2021/10/05 10:08:57;;;;;;;4.85;1.70;;;17.50;99.90;;;;;;4167036;28;20037;-75
2021/10/05 10:10:58;;;;;;;4.53;1.77;;;17.50;99.90;;;;;;4164815;28;20067;-74
2021/10/05 10:13:01;;;;;;;5.05;1.75;;;17.40;99.90;;;;;;4163679;28;20029;-75
2021/10/05 10:15:03;;;;;;;4.35;1.42;;;17.40;99.90;;;;;;4168605;28;20547;-75
2021/10/05 10:17:04;;;;;;;4.82;1.75;;;17.40;99.90;;;;;;4167140;28;20043;-75
2021/10/05 10:19:04;;;;;;;3.08;1.55;;;17.40;99.90;;;;;;4151153;28;20628;-75
2021/10/05 10:21:05;;;;;;;3.50;1.38;;;17.50;99.90;;;;;;4162384;28;20191;-75
2021/10/05 10:23:36;;;;;;;6.07;1.67;;;17.60;99.90;;;;;;4160278;28;20037;-74
2021/10/05 10:25:37;;;;;;;4.13;2.03;;;17.70;99.90;;;;;;4145779;28;20040;-74
2021/10/05 10:27:45;;;;;;;3.10;1.40;;;17.70;99.90;;;;;;4165249;28;20029;-75
2021/10/05 10:29:46;;;;;;;3.08;1.27;;;17.70;99.90;;;;;;4163516;28;20120;-75
2021/10/05 10:31:46;;;;;;;1.73;1.25;;;17.70;99.90;;;;;;4163825;28;20040;-75
2021/10/05 10:33:52;;;;;;;3.30;1.30;;;17.90;99.90;;;;;;4164850;28;20683;-74
2021/10/05 10:35:58;;;;;;;1.75;1.25;;;17.90;99.90;;;;;;4162946;28;20033;-75